sensor_id;sensor_type;location;lat;lon;timestamp;pressure;altitude;pressure_sealevel;temperature;humidity
74893;BME280;63446;56.272;43.922;2023-04-06T00:01:16;101296.53;;;8.78;57.19
74893;BME280;63446;56.272;43.922;2023-04-06T00:03:43;101301.47;;;8.75;57.26
74893;BME280;63446;56.272;43.922;2023-04-06T00:06:08;101294.81;;;8.72;57.27
74893;BME280;63446;56.272;43.922;2023-04-06T00:08:34;101310.09;;;8.70;57.24
74893;BME280;63446;56.272;43.922;2023-04-06T00:11:00;101303.69;;;8.66;57.25
74893;BME280;63446;56.272;43.922;2023-04-06T00:13:26;101307.34;;;8.65;57.23
74893;BME280;63446;56.272;43.922;2023-04-06T00:15:52;101312.03;;;8.63;57.35
74893;BME280;63446;56.272;43.922;2023-04-06T00:18:17;101316.97;;;8.60;57.35
74893;BME280;63446;56.272;43.922;2023-04-06T00:20:43;101312.75;;;8.59;57.29
74893;BME280;63446;56.272;43.922;2023-04-06T00:23:09;101310.81;;;8.54;57.35
74893;BME280;63446;56.272;43.922;2023-04-06T00:25:35;101311.03;;;8.52;57.27
74893;BME280;63446;56.272;43.922;2023-04-06T00:28:00;101313.91;;;8.51;57.28
74893;BME280;63446;56.272;43.922;2023-04-06T00:30:26;101318.03;;;8.47;57.40
74893;BME280;63446;56.272;43.922;2023-04-06T00:32:52;101318.47;;;8.44;57.28
74893;BME280;63446;56.272;43.922;2023-04-06T00:35:18;101323.41;;;8.40;57.38
74893;BME280;63446;56.272;43.922;2023-04-06T00:37:46;101318.81;;;8.36;57.38
74893;BME280;63446;56.272;43.922;2023-04-06T00:40:13;101320.31;;;8.31;57.39
74893;BME280;63446;56.272;43.922;2023-04-06T00:42:39;101320.75;;;8.28;57.55
74893;BME280;63446;56.272;43.922;2023-04-06T00:45:05;101320.84;;;8.22;57.62
74893;BME280;63446;56.272;43.922;2023-04-06T00:47:33;101327.97;;;8.21;57.62
74893;BME280;63446;56.272;43.922;2023-04-06T00:49:58;101330.25;;;8.18;57.56
74893;BME280;63446;56.272;43.922;2023-04-06T00:52:25;101342.06;;;8.15;57.62
74893;BME280;63446;56.272;43.922;2023-04-06T00:54:52;101332.19;;;8.11;57.52
74893;BME280;63446;56.272;43.922;2023-04-06T00:57:19;101335.31;;;8.07;57.84
74893;BME280;63446;56.272;43.922;2023-04-06T00:59:51;101343.06;;;8.02;57.73
74893;BME280;63446;56.272;43.922;2023-04-06T01:02:18;101336.66;;;7.98;57.91
74893;BME280;63446;56.272;43.922;2023-04-06T01:04:47;101337.34;;;7.94;58.04
74893;BME280;63446;56.272;43.922;2023-04-06T01:07:22;101336.63;;;7.87;58.13
74893;BME280;63446;56.272;43.922;2023-04-06T01:10:24;101331.25;;;7.81;58.05
74893;BME280;63446;56.272;43.922;2023-04-06T01:12:53;101336.72;;;7.80;58.22
74893;BME280;63446;56.272;43.922;2023-04-06T01:15:36;101339.84;;;7.77;58.30
74893;BME280;63446;56.272;43.922;2023-04-06T01:18:08;101336.84;;;7.73;58.36
74893;BME280;63446;56.272;43.922;2023-04-06T01:20:40;101334.66;;;7.70;58.46
74893;BME280;63446;56.272;43.922;2023-04-06T01:23:06;101338.53;;;7.68;58.44
74893;BME280;63446;56.272;43.922;2023-04-06T01:25:33;101338.41;;;7.63;58.50
74893;BME280;63446;56.272;43.922;2023-04-06T01:28:06;101339.09;;;7.58;58.59
74893;BME280;63446;56.272;43.922;2023-04-06T01:30:52;101334.72;;;7.52;58.71
74893;BME280;63446;56.272;43.922;2023-04-06T01:33:38;101335.16;;;7.49;58.78
74893;BME280;63446;56.272;43.922;2023-04-06T01:36:08;101341.69;;;7.46;58.75
74893;BME280;63446;56.272;43.922;2023-04-06T01:38:34;101344.97;;;7.42;58.97
74893;BME280;63446;56.272;43.922;2023-04-06T01:41:01;101344.84;;;7.37;59.20
74893;BME280;63446;56.272;43.922;2023-04-06T01:43:32;101349.97;;;7.31;59.26
74893;BME280;63446;56.272;43.922;2023-04-06T01:46:03;101343.13;;;7.30;59.16
74893;BME280;63446;56.272;43.922;2023-04-06T01:48:34;101357.25;;;7.29;59.30
74893;BME280;63446;56.272;43.922;2023-04-06T01:51:06;101356.91;;;7.26;59.49
74893;BME280;63446;56.272;43.922;2023-04-06T01:53:37;101352.31;;;7.21;59.56
74893;BME280;63446;56.272;43.922;2023-04-06T01:56:05;101360.44;;;7.20;59.60
74893;BME280;63446;56.272;43.922;2023-04-06T01:58:36;101368.75;;;7.17;59.49
74893;BME280;63446;56.272;43.922;2023-04-06T02:01:02;101369.19;;;7.14;59.56
74893;BME280;63446;56.272;43.922;2023-04-06T02:03:35;101369.88;;;7.09;59.71
74893;BME280;63446;56.272;43.922;2023-04-06T02:06:06;101370.66;;;7.09;59.74
74893;BME280;63446;56.272;43.922;2023-04-06T02:08:37;101373.53;;;7.08;59.80
74893;BME280;63446;56.272;43.922;2023-04-06T02:11:03;101383.66;;;7.04;59.85
74893;BME280;63446;56.272;43.922;2023-04-06T02:13:36;101386.72;;;7.01;59.89
74893;BME280;63446;56.272;43.922;2023-04-06T02:16:01;101381.72;;;7.00;59.92
74893;BME280;63446;56.272;43.922;2023-04-06T02:18:30;101390.81;;;6.97;60.08
74893;BME280;63446;56.272;43.922;2023-04-06T02:20:56;101391.06;;;6.96;60.12
74893;BME280;63446;56.272;43.922;2023-04-06T02:23:22;101390.22;;;6.95;60.36
74893;BME280;63446;56.272;43.922;2023-04-06T02:25:48;101397.91;;;6.97;60.15
74893;BME280;63446;56.272;43.922;2023-04-06T02:28:14;101399.94;;;6.95;60.15
74893;BME280;63446;56.272;43.922;2023-04-06T02:30:40;101401.56;;;6.96;60.20
74893;BME280;63446;56.272;43.922;2023-04-06T02:33:07;101405.78;;;6.97;60.28
74893;BME280;63446;56.272;43.922;2023-04-06T02:35:40;101406.34;;;6.99;60.22
74893;BME280;63446;56.272;43.922;2023-04-06T02:38:07;101405.56;;;6.98;60.12
74893;BME280;63446;56.272;43.922;2023-04-06T02:40:33;101413.81;;;7.02;60.20
74893;BME280;63446;56.272;43.922;2023-04-06T02:43:07;101411.78;;;7.04;60.12
74893;BME280;63446;56.272;43.922;2023-04-06T02:45:34;101411.13;;;7.08;60.17
74893;BME280;63446;56.272;43.922;2023-04-06T02:48:01;101412.66;;;7.16;60.16
74893;BME280;63446;56.272;43.922;2023-04-06T02:50:29;101410.59;;;7.18;59.98
74893;BME280;63446;56.272;43.922;2023-04-06T02:52:59;101414.91;;;7.31;59.92
74893;BME280;63446;56.272;43.922;2023-04-06T02:55:26;101424.88;;;7.41;59.65
74893;BME280;63446;56.272;43.922;2023-04-06T02:57:51;101430.88;;;7.48;59.76
74893;BME280;63446;56.272;43.922;2023-04-06T03:00:21;101428.75;;;7.56;59.47
74893;BME280;63446;56.272;43.922;2023-04-06T03:02:47;101429.03;;;7.67;59.35
74893;BME280;63446;56.272;43.922;2023-04-06T03:05:15;101431.13;;;7.76;59.19
74893;BME280;63446;56.272;43.922;2023-04-06T03:07:43;101432.75;;;7.89;58.99
74893;BME280;63446;56.272;43.922;2023-04-06T03:10:15;101432.34;;;8.04;58.63
74893;BME280;63446;56.272;43.922;2023-04-06T03:12:45;101434.69;;;8.24;58.32
74893;BME280;63446;56.272;43.922;2023-04-06T03:15:41;101427.75;;;8.76;57.53
74893;BME280;63446;56.272;43.922;2023-04-06T03:18:14;101437.59;;;9.45;56.56
74893;BME280;63446;56.272;43.922;2023-04-06T03:20:44;101436.84;;;10.91;54.21
74893;BME280;63446;56.272;43.922;2023-04-06T03:23:10;101432.66;;;12.52;51.89
74893;BME280;63446;56.272;43.922;2023-04-06T03:25:40;101439.63;;;14.35;49.11
74893;BME280;63446;56.272;43.922;2023-04-06T03:28:08;101443.03;;;15.96;46.44
74893;BME280;63446;56.272;43.922;2023-04-06T03:30:40;101436.50;;;17.37;44.53
74893;BME280;63446;56.272;43.922;2023-04-06T03:33:06;101442.53;;;18.65;42.62
74893;BME280;63446;56.272;43.922;2023-04-06T03:35:39;101453.91;;;19.89;40.59
74893;BME280;63446;56.272;43.922;2023-04-06T03:38:07;101445.63;;;21.02;38.86
74893;BME280;63446;56.272;43.922;2023-04-06T03:40:32;101449.97;;;21.98;37.33
74893;BME280;63446;56.272;43.922;2023-04-06T03:42:59;101445.75;;;22.82;36.07
74893;BME280;63446;56.272;43.922;2023-04-06T03:45:25;101459.50;;;23.70;34.89
74893;BME280;63446;56.272;43.922;2023-04-06T03:47:51;101444.00;;;24.45;34.12
74893;BME280;63446;56.272;43.922;2023-04-06T03:50:18;101444.97;;;25.26;33.06
74893;BME280;63446;56.272;43.922;2023-04-06T03:52:44;101445.97;;;26.18;32.25
74893;BME280;63446;56.272;43.922;2023-04-06T03:55:11;101455.00;;;27.05;30.93
74893;BME280;63446;56.272;43.922;2023-04-06T03:57:38;101454.19;;;27.59;30.33
74893;BME280;63446;56.272;43.922;2023-04-06T04:00:04;101448.28;;;28.15;29.54
74893;BME280;63446;56.272;43.922;2023-04-06T04:02:38;101456.13;;;28.93;28.82
74893;BME280;63446;56.272;43.922;2023-04-06T04:05:05;101455.09;;;29.61;28.13
74893;BME280;63446;56.272;43.922;2023-04-06T04:07:31;101452.91;;;30.15;27.43
74893;BME280;63446;56.272;43.922;2023-04-06T04:09:57;101454.91;;;30.70;27.01
74893;BME280;63446;56.272;43.922;2023-04-06T04:12:23;101461.13;;;31.29;26.52
74893;BME280;63446;56.272;43.922;2023-04-06T04:14:49;101458.56;;;31.79;25.49
74893;BME280;63446;56.272;43.922;2023-04-06T04:17:15;101459.41;;;32.26;25.06
74893;BME280;63446;56.272;43.922;2023-04-06T04:19:40;101467.59;;;32.79;24.71
74893;BME280;63446;56.272;43.922;2023-04-06T04:22:06;101467.78;;;33.39;24.21
74893;BME280;63446;56.272;43.922;2023-04-06T04:24:36;101463.09;;;34.09;23.63
74893;BME280;63446;56.272;43.922;2023-04-06T04:27:02;101463.03;;;34.65;23.34
74893;BME280;63446;56.272;43.922;2023-04-06T04:29:30;101466.47;;;35.10;22.67
74893;BME280;63446;56.272;43.922;2023-04-06T04:32:01;101460.84;;;35.52;22.22
74893;BME280;63446;56.272;43.922;2023-04-06T04:34:28;101464.63;;;35.88;22.10
74893;BME280;63446;56.272;43.922;2023-04-06T04:36:54;101471.94;;;36.26;21.82
74893;BME280;63446;56.272;43.922;2023-04-06T04:39:29;101466.94;;;36.64;21.43
74893;BME280;63446;56.272;43.922;2023-04-06T04:42:03;101470.94;;;37.03;21.04
74893;BME280;63446;56.272;43.922;2023-04-06T04:44:31;101470.63;;;37.37;20.86
74893;BME280;63446;56.272;43.922;2023-04-06T04:46:57;101460.59;;;37.63;20.53
74893;BME280;63446;56.272;43.922;2023-04-06T04:49:30;101468.81;;;37.83;20.42
74893;BME280;63446;56.272;43.922;2023-04-06T04:51:57;101465.72;;;37.97;20.05
74893;BME280;63446;56.272;43.922;2023-04-06T04:54:29;101457.50;;;38.26;20.05
74893;BME280;63446;56.272;43.922;2023-04-06T04:56:58;101461.19;;;38.52;19.82
74893;BME280;63446;56.272;43.922;2023-04-06T04:59:38;101465.63;;;38.79;19.73
74893;BME280;63446;56.272;43.922;2023-04-06T05:02:12;101466.22;;;38.99;19.61
74893;BME280;63446;56.272;43.922;2023-04-06T05:04:48;101469.91;;;39.22;19.29
74893;BME280;63446;56.272;43.922;2023-04-06T05:07:19;101467.72;;;39.29;19.08
74893;BME280;63446;56.272;43.922;2023-04-06T05:09:48;101480.56;;;39.49;18.99
74893;BME280;63446;56.272;43.922;2023-04-06T05:12:14;101474.06;;;39.55;18.83
74893;BME280;63446;56.272;43.922;2023-04-06T05:14:50;101476.38;;;39.70;18.74
74893;BME280;63446;56.272;43.922;2023-04-06T05:17:19;101475.03;;;39.87;18.66
74893;BME280;63446;56.272;43.922;2023-04-06T05:19:46;101480.09;;;40.01;18.56
74893;BME280;63446;56.272;43.922;2023-04-06T05:22:15;101478.53;;;40.00;18.42
74893;BME280;63446;56.272;43.922;2023-04-06T05:24:47;101482.88;;;39.89;18.45
74893;BME280;63446;56.272;43.922;2023-04-06T05:27:13;101480.47;;;39.78;18.44
74893;BME280;63446;56.272;43.922;2023-04-06T05:29:38;101475.50;;;39.73;18.49
74893;BME280;63446;56.272;43.922;2023-04-06T05:32:05;101477.25;;;39.54;18.52
74893;BME280;63446;56.272;43.922;2023-04-06T05:34:32;101484.31;;;39.42;18.36
74893;BME280;63446;56.272;43.922;2023-04-06T05:37:02;101475.19;;;39.03;18.51
74893;BME280;63446;56.272;43.922;2023-04-06T05:39:27;101477.28;;;38.25;18.85
74893;BME280;63446;56.272;43.922;2023-04-06T05:41:54;101477.09;;;36.43;19.74
74893;BME280;63446;56.272;43.922;2023-04-06T05:44:33;101472.19;;;33.95;20.81
74893;BME280;63446;56.272;43.922;2023-04-06T05:47:08;101474.06;;;31.46;22.26
74893;BME280;63446;56.272;43.922;2023-04-06T05:49:35;101468.72;;;29.31;23.53
74893;BME280;63446;56.272;43.922;2023-04-06T05:52:01;101474.22;;;27.51;24.85
74893;BME280;63446;56.272;43.922;2023-04-06T05:54:27;101481.06;;;25.99;26.10
74893;BME280;63446;56.272;43.922;2023-04-06T05:56:58;101471.81;;;24.58;27.31
74893;BME280;63446;56.272;43.922;2023-04-06T05:59:25;101477.19;;;23.37;28.39
74893;BME280;63446;56.272;43.922;2023-04-06T06:01:52;101471.03;;;22.22;29.27
74893;BME280;63446;56.272;43.922;2023-04-06T06:04:19;101466.56;;;21.31;30.23
74893;BME280;63446;56.272;43.922;2023-04-06T06:06:46;101480.81;;;20.52;31.13
74893;BME280;63446;56.272;43.922;2023-04-06T06:09:15;101474.19;;;19.82;31.85
74893;BME280;63446;56.272;43.922;2023-04-06T06:11:49;101483.44;;;19.12;32.64
74893;BME280;63446;56.272;43.922;2023-04-06T06:14:17;101488.31;;;18.49;33.38
74893;BME280;63446;56.272;43.922;2023-04-06T06:16:43;101481.75;;;17.90;34.10
74893;BME280;63446;56.272;43.922;2023-04-06T06:19:11;101497.16;;;17.37;34.61
74893;BME280;63446;56.272;43.922;2023-04-06T06:21:37;101485.19;;;16.86;35.45
74893;BME280;63446;56.272;43.922;2023-04-06T06:24:05;101489.59;;;16.43;36.06
74893;BME280;63446;56.272;43.922;2023-04-06T06:26:31;101477.84;;;16.09;36.57
74893;BME280;63446;56.272;43.922;2023-04-06T06:28:58;101485.22;;;15.83;37.09
74893;BME280;63446;56.272;43.922;2023-04-06T06:31:25;101484.22;;;15.64;37.37
74893;BME280;63446;56.272;43.922;2023-04-06T06:33:53;101482.72;;;15.48;37.70
74893;BME280;63446;56.272;43.922;2023-04-06T06:36:20;101484.38;;;15.33;37.94
74893;BME280;63446;56.272;43.922;2023-04-06T06:38:46;101486.56;;;15.26;38.10
74893;BME280;63446;56.272;43.922;2023-04-06T06:41:15;101486.84;;;15.20;38.41
74893;BME280;63446;56.272;43.922;2023-04-06T06:43:41;101486.84;;;15.09;38.72
74893;BME280;63446;56.272;43.922;2023-04-06T06:46:08;101482.88;;;15.02;39.36
74893;BME280;63446;56.272;43.922;2023-04-06T06:48:35;101491.41;;;14.99;39.40
74893;BME280;63446;56.272;43.922;2023-04-06T06:51:02;101490.63;;;14.93;39.56
74893;BME280;63446;56.272;43.922;2023-04-06T06:53:28;101495.19;;;14.87;39.65
74893;BME280;63446;56.272;43.922;2023-04-06T06:55:54;101491.44;;;14.83;39.74
74893;BME280;63446;56.272;43.922;2023-04-06T06:58:23;101485.34;;;14.78;39.92
74893;BME280;63446;56.272;43.922;2023-04-06T07:00:48;101486.13;;;14.78;40.33
74893;BME280;63446;56.272;43.922;2023-04-06T07:03:15;101495.19;;;14.77;40.29
74893;BME280;63446;56.272;43.922;2023-04-06T07:05:49;101483.75;;;14.72;40.32
74893;BME280;63446;56.272;43.922;2023-04-06T07:08:23;101497.34;;;14.65;40.32
74893;BME280;63446;56.272;43.922;2023-04-06T07:10:50;101495.47;;;14.60;40.33
74893;BME280;63446;56.272;43.922;2023-04-06T07:13:18;101479.53;;;14.50;40.51
74893;BME280;63446;56.272;43.922;2023-04-06T07:15:50;101485.59;;;14.40;40.61
74893;BME280;63446;56.272;43.922;2023-04-06T07:18:16;101494.13;;;14.32;40.88
74893;BME280;63446;56.272;43.922;2023-04-06T07:20:42;101482.69;;;14.22;40.94
74893;BME280;63446;56.272;43.922;2023-04-06T07:23:08;101480.28;;;14.10;41.10
74893;BME280;63446;56.272;43.922;2023-04-06T07:25:35;101482.13;;;13.94;41.31
74893;BME280;63446;56.272;43.922;2023-04-06T07:28:03;101473.34;;;13.83;41.45
74893;BME280;63446;56.272;43.922;2023-04-06T07:30:29;101491.41;;;13.76;41.73
74893;BME280;63446;56.272;43.922;2023-04-06T07:32:55;101480.50;;;13.73;41.63
74893;BME280;63446;56.272;43.922;2023-04-06T07:35:24;101490.59;;;13.71;41.68
74893;BME280;63446;56.272;43.922;2023-04-06T07:37:53;101489.22;;;13.68;41.56
74893;BME280;63446;56.272;43.922;2023-04-06T07:40:18;101487.63;;;13.62;41.52
74893;BME280;63446;56.272;43.922;2023-04-06T07:42:45;101481.25;;;13.58;41.56
74893;BME280;63446;56.272;43.922;2023-04-06T07:45:11;101484.44;;;13.55;41.48
74893;BME280;63446;56.272;43.922;2023-04-06T07:47:37;101489.72;;;13.50;41.59
74893;BME280;63446;56.272;43.922;2023-04-06T07:50:03;101489.19;;;13.48;41.46
74893;BME280;63446;56.272;43.922;2023-04-06T07:52:30;101487.84;;;13.45;41.48
74893;BME280;63446;56.272;43.922;2023-04-06T07:54:59;101482.00;;;13.43;41.48
74893;BME280;63446;56.272;43.922;2023-04-06T07:57:25;101483.84;;;13.42;41.56
74893;BME280;63446;56.272;43.922;2023-04-06T07:59:51;101495.28;;;13.43;41.42
74893;BME280;63446;56.272;43.922;2023-04-06T08:02:17;101494.22;;;13.44;41.17
74893;BME280;63446;56.272;43.922;2023-04-06T08:04:43;101497.13;;;13.42;41.20
74893;BME280;63446;56.272;43.922;2023-04-06T08:07:09;101500.03;;;13.36;40.81
74893;BME280;63446;56.272;43.922;2023-04-06T08:09:36;101504.75;;;13.29;40.63
74893;BME280;63446;56.272;43.922;2023-04-06T08:12:04;101498.31;;;13.19;40.45
74893;BME280;63446;56.272;43.922;2023-04-06T08:14:30;101501.50;;;13.16;40.34
74893;BME280;63446;56.272;43.922;2023-04-06T08:16:56;101499.34;;;13.13;40.40
74893;BME280;63446;56.272;43.922;2023-04-06T08:19:23;101502.56;;;13.15;40.41
74893;BME280;63446;56.272;43.922;2023-04-06T08:21:50;101500.44;;;13.17;40.23
74893;BME280;63446;56.272;43.922;2023-04-06T08:24:17;101502.31;;;13.22;40.08
74893;BME280;63446;56.272;43.922;2023-04-06T08:26:44;101499.66;;;13.22;39.98
74893;BME280;63446;56.272;43.922;2023-04-06T08:29:10;101521.75;;;13.28;39.94
74893;BME280;63446;56.272;43.922;2023-04-06T08:31:37;101497.34;;;13.31;39.60
74893;BME280;63446;56.272;43.922;2023-04-06T08:34:03;101506.41;;;13.35;39.50
74893;BME280;63446;56.272;43.922;2023-04-06T08:36:29;101504.25;;;13.37;39.31
74893;BME280;63446;56.272;43.922;2023-04-06T08:38:56;101499.50;;;13.34;39.09
74893;BME280;63446;56.272;43.922;2023-04-06T08:41:22;101510.34;;;13.32;38.71
74893;BME280;63446;56.272;43.922;2023-04-06T08:43:56;101505.84;;;13.33;38.58
74893;BME280;63446;56.272;43.922;2023-04-06T08:46:23;101501.31;;;13.33;38.38
74893;BME280;63446;56.272;43.922;2023-04-06T08:48:58;101492.56;;;13.33;38.31
74893;BME280;63446;56.272;43.922;2023-04-06T08:51:25;101508.53;;;13.38;38.17
74893;BME280;63446;56.272;43.922;2023-04-06T08:53:55;101500.03;;;13.41;37.87
74893;BME280;63446;56.272;43.922;2023-04-06T08:56:25;101497.66;;;13.44;37.52
74893;BME280;63446;56.272;43.922;2023-04-06T08:58:53;101499.81;;;13.48;37.29
74893;BME280;63446;56.272;43.922;2023-04-06T09:01:26;101494.78;;;13.51;36.95
74893;BME280;63446;56.272;43.922;2023-04-06T09:03:57;101495.84;;;13.55;36.83
74893;BME280;63446;56.272;43.922;2023-04-06T09:06:25;101496.13;;;13.59;36.65
74893;BME280;63446;56.272;43.922;2023-04-06T09:08:54;101503.81;;;13.60;36.30
74893;BME280;63446;56.272;43.922;2023-04-06T09:11:20;101501.72;;;13.62;35.89
74893;BME280;63446;56.272;43.922;2023-04-06T09:13:51;101490.28;;;13.62;35.64
74893;BME280;63446;56.272;43.922;2023-04-06T09:16:18;101503.84;;;13.65;35.83
74893;BME280;63446;56.272;43.922;2023-04-06T09:18:45;101507.03;;;13.67;35.56
74893;BME280;63446;56.272;43.922;2023-04-06T09:21:11;101500.13;;;13.72;35.41
74893;BME280;63446;56.272;43.922;2023-04-06T09:23:38;101489.00;;;13.75;35.54
74893;BME280;63446;56.272;43.922;2023-04-06T09:26:13;101494.88;;;13.82;35.48
74893;BME280;63446;56.272;43.922;2023-04-06T09:28:54;101497.00;;;13.85;35.24
74893;BME280;63446;56.272;43.922;2023-04-06T09:31:26;101495.94;;;13.86;35.23
74893;BME280;63446;56.272;43.922;2023-04-06T09:33:53;101488.50;;;13.88;35.02
74893;BME280;63446;56.272;43.922;2023-04-06T09:36:20;101491.69;;;13.95;34.86
74893;BME280;63446;56.272;43.922;2023-04-06T09:38:56;101484.00;;;13.99;34.52
74893;BME280;63446;56.272;43.922;2023-04-06T09:44:04;101482.41;;;14.03;34.42
74893;BME280;63446;56.272;43.922;2023-04-06T09:46:38;101481.09;;;14.05;34.36
74893;BME280;63446;56.272;43.922;2023-04-06T09:49:07;101478.69;;;14.09;34.41
74893;BME280;63446;56.272;43.922;2023-04-06T09:54:02;101477.66;;;14.15;33.99
74893;BME280;63446;56.272;43.922;2023-04-06T09:56:45;101487.22;;;14.16;33.85
74893;BME280;63446;56.272;43.922;2023-04-06T09:59:22;101478.69;;;14.14;33.65
74893;BME280;63446;56.272;43.922;2023-04-06T10:01:51;101481.06;;;14.10;33.36
74893;BME280;63446;56.272;43.922;2023-04-06T10:04:21;101477.34;;;14.06;33.18
74893;BME280;63446;56.272;43.922;2023-04-06T10:06:51;101472.31;;;14.05;33.02
74893;BME280;63446;56.272;43.922;2023-04-06T10:09:19;101474.69;;;14.01;32.75
74893;BME280;63446;56.272;43.922;2023-04-06T10:11:49;101477.34;;;14.01;32.66
74893;BME280;63446;56.272;43.922;2023-04-06T10:14:17;101471.78;;;13.98;32.44
74893;BME280;63446;56.272;43.922;2023-04-06T10:16:42;101471.25;;;13.96;32.37
74893;BME280;63446;56.272;43.922;2023-04-06T10:19:25;101473.63;;;13.97;32.40
74893;BME280;63446;56.272;43.922;2023-04-06T10:21:54;101474.69;;;14.01;32.46
74893;BME280;63446;56.272;43.922;2023-04-06T10:24:23;101468.88;;;13.99;32.40
74893;BME280;63446;56.272;43.922;2023-04-06T10:27:02;101463.78;;;13.98;32.46
74893;BME280;63446;56.272;43.922;2023-04-06T10:29:28;101479.50;;;13.99;32.32
74893;BME280;63446;56.272;43.922;2023-04-06T10:31:53;101468.88;;;13.99;32.23
74893;BME280;63446;56.272;43.922;2023-04-06T10:34:21;101469.94;;;14.03;32.09
74893;BME280;63446;56.272;43.922;2023-04-06T10:36:47;101476.03;;;14.04;31.89
74893;BME280;63446;56.272;43.922;2023-04-06T10:39:13;101465.41;;;14.04;31.81
74893;BME280;63446;56.272;43.922;2023-04-06T10:41:43;101474.19;;;14.04;31.67
74893;BME280;63446;56.272;43.922;2023-04-06T10:44:20;101472.84;;;14.02;31.65
74893;BME280;63446;56.272;43.922;2023-04-06T10:46:58;101479.75;;;14.03;31.63
74893;BME280;63446;56.272;43.922;2023-04-06T10:49:26;101477.63;;;14.05;31.54
74893;BME280;63446;56.272;43.922;2023-04-06T10:51:54;101471.53;;;14.04;31.44
74893;BME280;63446;56.272;43.922;2023-04-06T10:54:24;101471.75;;;14.03;31.31
74893;BME280;63446;56.272;43.922;2023-04-06T10:56:51;101477.34;;;14.01;31.40
74893;BME280;63446;56.272;43.922;2023-04-06T10:59:20;101468.31;;;14.02;31.17
74893;BME280;63446;56.272;43.922;2023-04-06T11:01:48;101470.72;;;14.04;31.18
74893;BME280;63446;56.272;43.922;2023-04-06T11:04:17;101471.00;;;14.07;31.29
74893;BME280;63446;56.272;43.922;2023-04-06T11:06:49;101469.66;;;14.15;31.21
74893;BME280;63446;56.272;43.922;2023-04-06T11:09:26;101456.09;;;14.22;31.23
74893;BME280;63446;56.272;43.922;2023-04-06T11:11:52;101477.38;;;14.32;31.33
74893;BME280;63446;56.272;43.922;2023-04-06T11:14:18;101473.38;;;14.39;31.03
74893;BME280;63446;56.272;43.922;2023-04-06T11:16:46;101476.31;;;14.43;30.62
74893;BME280;63446;56.272;43.922;2023-04-06T11:19:13;101463.28;;;14.41;30.40
74893;BME280;63446;56.272;43.922;2023-04-06T11:24:19;101462.22;;;14.32;30.28
74893;BME280;63446;56.272;43.922;2023-04-06T11:26:48;101467.56;;;14.22;30.29
74893;BME280;63446;56.272;43.922;2023-04-06T11:29:29;101463.00;;;14.17;30.52
74893;BME280;63446;56.272;43.922;2023-04-06T11:32:01;101470.19;;;14.12;30.42
74893;BME280;63446;56.272;43.922;2023-04-06T11:34:33;101461.16;;;14.08;30.39
74893;BME280;63446;56.272;43.922;2023-04-06T11:37:06;101460.59;;;14.06;30.52
74893;BME280;63446;56.272;43.922;2023-04-06T11:39:38;101465.94;;;14.01;30.75
74893;BME280;63446;56.272;43.922;2023-04-06T11:42:06;101463.00;;;14.02;30.77
74893;BME280;63446;56.272;43.922;2023-04-06T11:47:02;101464.59;;;13.93;30.86
74893;BME280;63446;56.272;43.922;2023-04-06T11:49:29;101464.31;;;13.89;31.00
74893;BME280;63446;56.272;43.922;2023-04-06T11:51:56;101457.41;;;13.88;31.09
74893;BME280;63446;56.272;43.922;2023-04-06T11:54:32;101459.25;;;13.83;31.14
74893;BME280;63446;56.272;43.922;2023-04-06T11:56:58;101459.25;;;13.78;31.12
74893;BME280;63446;56.272;43.922;2023-04-06T11:59:24;101449.38;;;13.68;31.27
74893;BME280;63446;56.272;43.922;2023-04-06T12:01:50;101454.47;;;13.70;31.23
74893;BME280;63446;56.272;43.922;2023-04-06T12:04:18;101455.53;;;13.68;31.57
74893;BME280;63446;56.272;43.922;2023-04-06T12:06:45;101444.06;;;13.63;31.42
74893;BME280;63446;56.272;43.922;2023-04-06T12:09:10;101449.66;;;13.66;31.50
74893;BME280;63446;56.272;43.922;2023-04-06T12:11:36;101441.97;;;13.65;31.55
74893;BME280;63446;56.272;43.922;2023-04-06T12:14:04;101443.84;;;13.64;31.57
74893;BME280;63446;56.272;43.922;2023-04-06T12:16:31;101454.47;;;13.64;31.46
74893;BME280;63446;56.272;43.922;2023-04-06T12:18:57;101447.81;;;13.62;31.43
74893;BME280;63446;56.272;43.922;2023-04-06T12:21:23;101446.72;;;13.58;31.30
74893;BME280;63446;56.272;43.922;2023-04-06T12:23:48;101451.22;;;13.52;31.33
74893;BME280;63446;56.272;43.922;2023-04-06T12:26:14;101447.75;;;13.52;31.52
74893;BME280;63446;56.272;43.922;2023-04-06T12:28:40;101448.84;;;13.51;31.43
74893;BME280;63446;56.272;43.922;2023-04-06T12:31:06;101447.47;;;13.48;31.42
74893;BME280;63446;56.272;43.922;2023-04-06T12:33:32;101452.78;;;13.48;31.42
74893;BME280;63446;56.272;43.922;2023-04-06T12:35:57;101449.06;;;13.39;31.52
74893;BME280;63446;56.272;43.922;2023-04-06T12:38:23;101442.44;;;13.41;31.60
74893;BME280;63446;56.272;43.922;2023-04-06T12:40:50;101438.97;;;13.36;31.86
74893;BME280;63446;56.272;43.922;2023-04-06T12:43:16;101443.22;;;13.42;32.12
74893;BME280;63446;56.272;43.922;2023-04-06T12:45:43;101452.00;;;13.42;32.20
74893;BME280;63446;56.272;43.922;2023-04-06T12:48:10;101453.84;;;13.42;32.16
74893;BME280;63446;56.272;43.922;2023-04-06T12:50:36;101452.25;;;13.41;32.39
74893;BME280;63446;56.272;43.922;2023-04-06T12:53:01;101451.72;;;13.39;32.37
74893;BME280;63446;56.272;43.922;2023-04-06T12:55:29;101446.41;;;13.34;32.42
74893;BME280;63446;56.272;43.922;2023-04-06T12:57:55;101452.50;;;13.34;32.58
74893;BME280;63446;56.272;43.922;2023-04-06T13:00:21;101448.78;;;13.30;32.63